Flight Track Log - Related Links

Times and Time Zones

All times are in EDT time to prevent confusion due to time zone crossing. See the TCF642 flight status page for this flight to view local times or setup timezone preferences in your user account.

Time Position Orientation Groundspeed Altitude Reporting Facility
EDT Latitude Longitude Course Direction KTS MPH feet Rate Location/Type
Tue 03:06:22 PM 41.9333 -87.8667 159° South 189 217 3,100  Level Chicago TRACON
Tue 03:07:30 PM 41.8760 -87.8690 176° South 250 288 4,600 1,157 Climbing FlightAware ADS-B
Tue 03:07:45 PM 41.8640 -87.8670 173° South 252 290 4,700 150 Climbing FlightAware ADS-B
Tue 03:08:10 PM 41.8390 -87.8650 177° South 252 290 4,700 2,067 Level FlightAware ADS-B
Tue 03:11:00 PM 41.6440 -87.7053 159° South  Level FlightAware Approximate
Tue 03:12:15 PM 41.5470 -87.6980 159° South 252 290 14,000  Level FlightAware ADS-B
Tue 03:12:40 PM 41.5120 -87.6620 142° Southeast 377 434 14,600 1,520 Climbing FlightAware ADS-B
Tue 03:13:30 PM 41.4380 -87.5880 143° Southeast 401 461 15,900 1,500 Climbing FlightAware ADS-B
Tue 03:14:00 PM 41.3880 -87.5530 152° Southeast 403 464 16,600 1,800 Climbing FlightAware ADS-B
Tue 03:14:40 PM 41.3200 -87.5150 157° South 407 468 18,000 1,950 Climbing FlightAware ADS-B
Tue 03:15:20 PM 41.2540 -87.4780 157° South 421 484 19,200 1,725 Climbing FlightAware ADS-B
Tue 03:16:00 PM 41.1730 -87.4330 157° South 444 511 20,300 1,080 Climbing FlightAware ADS-B
Tue 03:17:00 PM 41.0580 -87.3690 157° South 509 586 21,000 336 Climbing FlightAware ADS-B
Tue 03:18:05 PM 40.9330 -87.2990 157° South 420 483 21,000  Level FlightAware ADS-B
Tue 03:18:35 PM 40.8720 -87.2650 157° South 470 541 21,000  Level FlightAware ADS-B
Tue 03:19:05 PM 40.8160 -87.2340 157° South 461 531 21,000  Level FlightAware ADS-B
Tue 03:19:45 PM 40.7390 -87.1910 157° South 444 511 21,000  Level FlightAware ADS-B
Tue 03:20:05 PM 40.7000 -87.1690 157° South 428 493 21,000  Level FlightAware ADS-B
Tue 03:20:35 PM 40.6480 -87.1410 158° South 437 503 21,000  Level FlightAware ADS-B
Tue 03:21:25 PM 40.5690 -87.0970 157° South 437 503 21,000  Level FlightAware ADS-B
Tue 03:22:01 PM 40.5120 -87.0650 157° South 437 503 21,000  Level FlightAware ADS-B
Tue 03:22:37 PM 40.4550 -87.0330 157° South 437 503 21,000  Level FlightAware ADS-B
Tue 03:23:13 PM 40.3980 -87.0010 157° South 437 503 21,000  Level FlightAware ADS-B
Tue 03:24:13 PM 40.3030 -86.9490 157° South 437 503 21,000  Level FlightAware ADS-B
Tue 03:24:26 PM 40.2830 -86.9370 155° Southeast 437 503 21,000 -5,341 Level FlightAware ADS-B
Tue 03:25:44 PM 40.1186 -86.8094 155° Southeast 353 406 12,900 -4,512 Descending Chicago Center
Tue 03:26:31 PM 40.0678 -86.7333 131° Southeast 348 400 11,600 -1,596 Descending Indianapolis Center
Tue 03:27:33 PM 40.0050 -86.6428 132° Southeast 343 395 10,000 -774 Descending Indianapolis Center
Tue 03:28:35 PM 39.9444 -86.5553 132° Southeast 331 381 10,000 -242 Level Indianapolis Center
Tue 03:29:37 PM 39.8892 -86.4753 132° Southeast 307 353 9,500 -1,306 Descending Indianapolis Center
Tue 03:30:39 PM 39.8125 -86.4219 152° Southeast 273 314 7,300 -1,645 Descending Indianapolis Center
Tue 03:31:41 PM 39.7497 -86.4258 183° South 263 303 6,100 -1,113 Descending Indianapolis Center
Tue 03:32:43 PM 39.7025 -86.4944 228° Southwest 258 297 5,000 -774 Descending Indianapolis Center
Tue 03:33:45 PM 39.6461 -86.4889 176° South 264 304 4,500 -1,113 Descending Indianapolis Center
Tue 03:34:47 PM 39.6483 -86.3972 88° East 231 266 2,700 -1,452 Descending Indianapolis Center
Tue 03:35:49 PM 39.6842 -86.3494 46° Northeast 204 235 1,500 -968 Descending Indianapolis Center
Tue 03:36:51 PM 39.7094 -86.3169 45° Northeast 161 185 700 -387 Descending Indianapolis Center
Tue 03:37:53 PM 39.7300 -86.2906 45° Northeast 146 168 700  Level Indianapolis Center

Login

Don't have an account? Register now (free) for customized features, flight alerts, and more!